createdAt,value
2022-08-20T00:02:13.590Z,52.60
2022-08-20T00:04:43.042Z,62.80
2022-08-20T00:07:11.121Z,60.30
2022-08-20T00:09:39.144Z,57.70
2022-08-20T00:12:07.771Z,60.10
2022-08-20T00:14:36.712Z,55.80
2022-08-20T00:17:06.016Z,59.60
2022-08-20T00:19:34.784Z,66.20
2022-08-20T00:22:04.314Z,63.70
2022-08-20T00:24:32.927Z,66.10
2022-08-20T00:27:01.259Z,65.70
2022-08-20T00:29:29.346Z,63.80
2022-08-20T00:31:57.464Z,62.90
2022-08-20T00:34:25.489Z,64.00
2022-08-20T00:36:53.545Z,63.20
2022-08-20T00:39:22.910Z,64.30
2022-08-20T00:41:51.941Z,65.90
2022-08-20T00:44:22.769Z,65.50
2022-08-20T00:46:52.376Z,64.60
2022-08-20T00:49:24.760Z,63.70
2022-08-20T00:51:58.588Z,65.10
2022-08-20T00:54:34.133Z,65.60
2022-08-20T00:57:05.949Z,67.60
2022-08-20T00:59:37.420Z,65.40
2022-08-20T01:02:07.868Z,65.80
2022-08-20T01:04:37.609Z,65.80
2022-08-20T01:07:07.621Z,64.60
2022-08-20T01:09:57.432Z,62.30
2022-08-20T01:12:27.764Z,66.70
2022-08-20T01:14:58.952Z,64.30
2022-08-20T01:17:29.431Z,63.50
2022-08-20T01:20:06.391Z,62.10
2022-08-20T01:22:55.826Z,64.70
2022-08-20T01:25:34.267Z,62.70
2022-08-20T01:28:04.092Z,64.30
2022-08-20T01:30:33.764Z,63.70
2022-08-20T01:33:02.526Z,63.30
2022-08-20T01:35:30.776Z,60.20
2022-08-20T01:37:58.937Z,60.80
2022-08-20T01:40:45.516Z,57.90
2022-08-20T01:43:15.281Z,60.70
2022-08-20T01:45:45.369Z,61.80
2022-08-20T01:48:17.398Z,59.70
2022-08-20T01:50:52.645Z,57.70
2022-08-20T01:53:28.882Z,55.30
2022-08-20T01:55:56.877Z,55.10
2022-08-20T01:58:27.749Z,55.50
2022-08-20T02:00:55.801Z,53.90
2022-08-20T02:03:24.262Z,53.20
2022-08-20T02:05:53.414Z,58.80
2022-08-20T02:08:22.280Z,61.40
2022-08-20T02:10:50.453Z,67.70
2022-08-20T02:13:18.584Z,68.20
2022-08-20T02:15:48.034Z,69.60
2022-08-20T02:18:17.165Z,69.30
2022-08-20T02:20:46.705Z,68.80
2022-08-20T02:23:15.649Z,72.50
2022-08-20T02:25:47.301Z,75.40
2022-08-20T02:28:19.820Z,72.00
2022-08-20T02:30:52.017Z,75.40
2022-08-20T02:33:24.210Z,76.10
2022-08-20T02:35:56.472Z,73.40
2022-08-20T02:38:24.727Z,75.40
2022-08-20T02:40:52.774Z,74.00
2022-08-20T02:43:21.536Z,77.00
2022-08-20T02:45:51.575Z,74.30
2022-08-20T02:48:22.827Z,73.20
2022-08-20T02:50:55.250Z,73.20
2022-08-20T02:53:23.940Z,71.90
2022-08-20T02:55:52.177Z,70.70
2022-08-20T02:58:21.372Z,71.90
2022-08-20T03:00:51.623Z,71.00
2022-08-20T03:03:22.664Z,73.10
2022-08-20T03:05:53.052Z,71.90
2022-08-20T03:08:21.731Z,72.60
2022-08-20T03:10:51.197Z,71.10
2022-08-20T03:13:20.163Z,73.70
2022-08-20T03:15:55.339Z,78.30
2022-08-20T03:18:28.573Z,77.70
2022-08-20T03:20:56.625Z,75.80
2022-08-20T03:23:25.408Z,73.60
2022-08-20T03:25:53.429Z,75.50
2022-08-20T03:28:21.571Z,77.60
2022-08-20T03:30:51.502Z,74.40
2022-08-20T03:33:20.313Z,71.90
2022-08-20T03:35:48.821Z,71.20
2022-08-20T03:38:18.435Z,71.00
2022-08-20T03:40:57.920Z,69.10
2022-08-20T03:43:25.966Z,70.90
2022-08-20T03:45:55.522Z,72.40
2022-08-20T03:48:23.730Z,70.40
2022-08-20T03:50:52.988Z,71.80
2022-08-20T03:53:21.206Z,72.90
2022-08-20T03:55:58.240Z,73.60
2022-08-20T03:58:35.440Z,74.40
2022-08-20T04:01:36.740Z,74.80
2022-08-20T04:03:58.809Z,75.20
2022-08-20T04:06:27.786Z,73.00
2022-08-20T04:08:55.850Z,73.20
2022-08-20T04:11:24.160Z,71.00
2022-08-20T04:13:52.494Z,72.80
2022-08-20T04:16:22.402Z,73.20
2022-08-20T04:18:58.640Z,75.40
2022-08-20T04:21:32.502Z,75.40
2022-08-20T04:24:02.216Z,76.90
2022-08-20T04:26:30.507Z,76.70
2022-08-20T04:28:58.632Z,76.50
2022-08-20T04:31:33.038Z,78.60
2022-08-20T04:34:02.180Z,77.80
2022-08-20T04:36:30.639Z,77.30
2022-08-20T04:38:58.678Z,78.10
2022-08-20T04:41:26.733Z,80.10
2022-08-20T04:43:56.072Z,79.10
2022-08-20T04:46:27.621Z,81.90
2022-08-20T04:48:58.171Z,84.40
2022-08-20T04:51:27.036Z,83.20
2022-08-20T04:53:56.310Z,83.70
2022-08-20T04:56:28.169Z,85.40
2022-08-20T04:58:58.487Z,84.40
2022-08-20T05:01:27.333Z,84.90
2022-08-20T05:03:57.624Z,87.00
2022-08-20T05:06:28.509Z,84.50
2022-08-20T05:08:58.997Z,84.40
2022-08-20T05:11:34.698Z,83.20
2022-08-20T05:14:08.309Z,80.20
2022-08-20T05:16:40.296Z,74.70
2022-08-20T05:19:11.719Z,71.10
2022-08-20T05:21:40.667Z,63.50
2022-08-20T05:24:11.365Z,58.10
2022-08-20T05:26:39.645Z,51.30
2022-08-20T05:29:07.877Z,43.00
2022-08-20T05:31:36.288Z,37.90
2022-08-20T05:34:09.609Z,29.80
2022-08-20T05:36:40.943Z,23.30
2022-08-20T05:39:10.354Z,17.00
2022-08-20T05:41:38.901Z,12.80
2022-08-20T05:44:09.999Z,8.70
2022-08-20T05:46:40.914Z,5.70
2022-08-20T05:49:09.367Z,8.00
2022-08-20T05:51:39.102Z,9.00
2022-08-20T05:54:07.931Z,9.20
2022-08-20T05:56:36.067Z,3.50
2022-08-20T05:59:06.010Z,1.00
2022-08-20T06:01:35.088Z,1.00
2022-08-20T06:04:20.970Z,1.00
2022-08-20T06:06:51.184Z,1.00
2022-08-20T06:09:30.607Z,1.00
2022-08-20T06:12:01.696Z,1.00
2022-08-20T06:14:30.338Z,1.00
2022-08-20T06:17:07.431Z,1.00
2022-08-20T06:19:36.540Z,1.00
2022-08-20T06:22:08.705Z,1.00
2022-08-20T06:24:48.471Z,1.00
2022-08-20T06:27:17.882Z,1.00
2022-08-20T06:29:46.232Z,1.00
2022-08-20T06:32:14.459Z,1.00
2022-08-20T06:34:50.727Z,1.00
2022-08-20T06:37:27.444Z,1.00
2022-08-20T06:40:02.576Z,1.00
2022-08-20T06:42:30.736Z,1.00
2022-08-20T06:45:00.434Z,1.00
2022-08-20T06:47:28.731Z,1.00
2022-08-20T06:49:56.800Z,1.00
2022-08-20T06:52:51.530Z,1.00
2022-08-20T06:55:16.230Z,1.00
2022-08-20T06:57:44.719Z,1.00
2022-08-20T07:00:15.790Z,1.00
2022-08-20T07:02:44.179Z,1.00
2022-08-20T07:05:12.996Z,1.00
2022-08-20T07:07:46.074Z,1.00
2022-08-20T07:10:16.808Z,1.00
2022-08-20T07:12:46.492Z,1.00
2022-08-20T07:15:15.524Z,1.00
2022-08-20T07:17:43.973Z,1.00
2022-08-20T07:20:15.600Z,1.00
2022-08-20T07:22:45.822Z,1.00
2022-08-20T07:25:17.044Z,1.00
2022-08-20T07:27:45.706Z,1.00
2022-08-20T07:30:34.098Z,1.00
2022-08-20T07:33:22.637Z,1.00
2022-08-20T07:35:50.914Z,1.00
2022-08-20T07:38:24.218Z,1.00
2022-08-20T07:40:53.745Z,1.00
2022-08-20T07:43:23.210Z,1.00
2022-08-20T07:45:52.211Z,1.00
2022-08-20T07:48:30.876Z,1.00
2022-08-20T07:51:03.389Z,1.00
2022-08-20T07:53:35.820Z,1.00
2022-08-20T07:56:06.424Z,1.00
2022-08-20T07:58:35.787Z,1.00
2022-08-20T08:01:05.117Z,99.90
2022-08-20T08:03:39.494Z,99.90
2022-08-20T08:06:29.813Z,99.90
2022-08-20T08:09:04.739Z,99.90
2022-08-20T08:11:35.838Z,99.90
2022-08-20T08:14:08.587Z,99.90
2022-08-20T08:16:37.684Z,99.90
2022-08-20T08:19:11.874Z,99.90
2022-08-20T08:21:40.114Z,99.90
2022-08-20T08:24:12.131Z,99.90
2022-08-20T08:26:41.724Z,99.90
2022-08-20T08:29:09.695Z,99.90
2022-08-20T08:31:37.697Z,99.90
2022-08-20T08:34:08.013Z,99.90
2022-08-20T08:36:36.285Z,99.90
2022-08-20T08:39:04.397Z,98.60
2022-08-20T08:41:36.598Z,50.40
2022-08-20T08:44:09.389Z,1.00
2022-08-20T08:46:41.786Z,1.00
2022-08-20T08:49:13.578Z,1.00
2022-08-20T08:51:46.388Z,1.00
2022-08-20T08:54:17.581Z,1.00
2022-08-20T08:56:49.781Z,1.00
2022-08-20T08:59:20.393Z,99.90
2022-08-20T09:01:56.013Z,99.90
2022-08-20T09:04:31.908Z,99.90
2022-08-20T09:07:02.866Z,99.90
2022-08-20T09:09:35.613Z,99.90
2022-08-20T09:12:09.501Z,99.90
2022-08-20T09:14:38.785Z,99.90
2022-08-20T09:17:07.280Z,99.90
2022-08-20T09:19:35.362Z,72.00
2022-08-20T09:22:10.081Z,3.70
2022-08-20T09:24:38.530Z,1.00
2022-08-20T09:27:08.484Z,1.00
2022-08-20T09:29:36.758Z,1.00
2022-08-20T09:32:07.118Z,1.00
2022-08-20T09:34:37.841Z,99.90
2022-08-20T09:37:06.246Z,99.90
2022-08-20T09:39:35.055Z,99.90
2022-08-20T09:42:13.551Z,99.90
2022-08-20T09:44:42.111Z,99.90
2022-08-20T09:47:10.927Z,99.90
2022-08-20T09:49:41.042Z,99.90
2022-08-20T09:52:12.732Z,99.90
2022-08-20T09:54:46.278Z,99.90
2022-08-20T09:57:17.614Z,96.30
2022-08-20T09:59:49.173Z,63.50
2022-08-20T10:02:17.185Z,1.00
2022-08-20T10:04:45.314Z,1.00
2022-08-20T10:07:16.096Z,1.00
2022-08-20T10:09:44.350Z,99.90
2022-08-20T10:12:12.399Z,99.90
2022-08-20T10:14:41.791Z,99.90
2022-08-20T10:17:09.892Z,99.90
2022-08-20T10:19:38.204Z,99.90
2022-08-20T10:22:06.499Z,83.40
2022-08-20T10:24:35.308Z,99.90
2022-08-20T10:27:03.541Z,82.40
2022-08-20T10:29:31.970Z,99.90
2022-08-20T10:32:09.936Z,19.30
2022-08-20T10:34:38.012Z,1.00
2022-08-20T10:37:06.115Z,1.00
2022-08-20T10:39:34.310Z,1.00
2022-08-20T10:42:02.420Z,1.00
2022-08-20T10:44:31.918Z,99.90
2022-08-20T10:47:15.058Z,99.90
2022-08-20T10:49:43.091Z,1.00
2022-08-20T10:52:11.650Z,1.00
2022-08-20T10:54:42.184Z,99.90
2022-08-20T10:57:14.003Z,1.00
2022-08-20T10:59:42.981Z,99.90
2022-08-20T11:02:12.553Z,99.90
2022-08-20T11:04:42.351Z,1.00
2022-08-20T11:07:15.336Z,99.90
2022-08-20T11:09:44.456Z,99.90
2022-08-20T11:12:12.942Z,99.90
2022-08-20T11:14:41.001Z,99.90
2022-08-20T11:17:09.644Z,1.00
2022-08-20T11:19:42.937Z,1.00
2022-08-20T11:22:14.089Z,99.90
2022-08-20T11:24:42.134Z,1.00
2022-08-20T11:27:20.843Z,99.90
2022-08-20T11:29:48.900Z,99.90
2022-08-20T11:32:17.038Z,99.90
2022-08-20T11:34:46.428Z,99.90
2022-08-20T11:37:15.568Z,99.90
2022-08-20T11:39:43.870Z,99.90
2022-08-20T11:42:13.196Z,99.90
2022-08-20T11:44:41.273Z,99.90
2022-08-20T11:47:09.942Z,99.90
2022-08-20T11:49:38.749Z,99.90
2022-08-20T11:52:08.421Z,99.90
2022-08-20T11:54:40.532Z,99.90
2022-08-20T11:57:08.808Z,99.90
2022-08-20T11:59:36.808Z,99.90
2022-08-20T12:02:10.253Z,99.90
2022-08-20T12:04:40.260Z,99.90
2022-08-20T12:07:14.536Z,77.20
2022-08-20T12:09:50.404Z,90.20
2022-08-20T12:12:20.586Z,99.90
2022-08-20T12:14:48.900Z,99.90
2022-08-20T12:17:21.389Z,99.90
2022-08-20T12:19:49.514Z,99.90
2022-08-20T12:22:24.407Z,99.90
2022-08-20T12:24:54.075Z,99.90
2022-08-20T12:27:24.535Z,99.90
2022-08-20T12:29:54.341Z,99.90
2022-08-20T12:32:23.566Z,99.90
2022-08-20T12:34:51.734Z,99.90
2022-08-20T12:37:24.556Z,99.90
2022-08-20T12:39:56.212Z,99.90
2022-08-20T12:42:24.994Z,99.90
2022-08-20T12:44:53.057Z,99.90
2022-08-20T12:47:24.069Z,99.90
2022-08-20T12:49:54.513Z,99.90
2022-08-20T12:52:26.046Z,99.90
2022-08-20T12:54:55.121Z,99.90
2022-08-20T12:57:28.904Z,99.90
2022-08-20T12:59:57.123Z,99.90
2022-08-20T13:02:27.516Z,1.00
2022-08-20T13:04:55.734Z,1.00
2022-08-20T13:07:27.754Z,1.00
2022-08-20T13:09:55.936Z,1.00
2022-08-20T13:12:23.998Z,1.00
2022-08-20T13:14:52.131Z,1.00
2022-08-20T13:17:27.395Z,1.00
2022-08-20T13:20:14.330Z,1.00
2022-08-20T13:22:43.954Z,1.00
2022-08-20T13:25:13.763Z,1.00
2022-08-20T13:27:43.268Z,99.90
2022-08-20T13:30:15.391Z,99.90
2022-08-20T13:32:43.554Z,1.00
2022-08-20T13:35:12.578Z,99.90
2022-08-20T13:37:44.761Z,1.00
2022-08-20T13:40:13.743Z,91.20
2022-08-20T13:42:42.192Z,99.90
2022-08-20T13:45:10.971Z,10.50
2022-08-20T13:47:42.076Z,99.90
2022-08-20T13:50:13.927Z,99.90
2022-08-20T13:52:44.389Z,1.00
2022-08-20T13:55:15.568Z,1.00
2022-08-20T13:57:45.259Z,1.00
2022-08-20T14:00:16.710Z,1.00
2022-08-20T14:02:44.878Z,99.90
2022-08-20T14:05:14.312Z,99.90
2022-08-20T14:07:50.416Z,99.90
2022-08-20T14:10:22.356Z,99.90
2022-08-20T14:12:52.863Z,99.90
2022-08-20T14:15:21.765Z,1.00
2022-08-20T14:17:52.646Z,1.00
2022-08-20T14:20:24.318Z,1.00
2022-08-20T14:22:53.698Z,16.10
2022-08-20T14:25:23.592Z,72.60
2022-08-20T14:27:52.905Z,99.90
2022-08-20T14:30:22.900Z,99.90
2022-08-20T14:32:51.607Z,99.90
2022-08-20T14:35:20.778Z,99.90
2022-08-20T14:37:56.626Z,99.90
2022-08-20T14:40:28.514Z,99.90
2022-08-20T14:43:03.424Z,99.90
2022-08-20T14:45:31.865Z,99.90
2022-08-20T14:48:00.557Z,99.90
2022-08-20T14:50:31.158Z,99.90
2022-08-20T14:52:59.998Z,99.90
2022-08-20T14:55:31.092Z,99.90
2022-08-20T14:57:59.322Z,99.90
2022-08-20T15:00:30.867Z,99.90
2022-08-20T15:02:59.533Z,99.90
2022-08-20T15:05:29.770Z,99.90
2022-08-20T15:08:01.571Z,99.90
2022-08-20T15:10:35.569Z,99.90
2022-08-20T15:13:05.474Z,99.90
2022-08-20T15:15:33.578Z,99.90
2022-08-20T15:18:02.160Z,99.90
2022-08-20T15:20:32.368Z,99.90
2022-08-20T15:23:00.636Z,99.90
2022-08-20T15:25:36.151Z,99.90
2022-08-20T15:28:08.311Z,99.90
2022-08-20T15:30:37.990Z,99.90
2022-08-20T15:33:06.256Z,99.90
2022-08-20T15:35:35.012Z,99.90
2022-08-20T15:38:03.490Z,99.90
2022-08-20T15:40:34.915Z,99.90
2022-08-20T15:43:05.395Z,99.90
2022-08-20T15:45:35.147Z,99.90
2022-08-20T15:48:09.079Z,99.90
2022-08-20T15:50:54.570Z,99.90
2022-08-20T15:53:28.997Z,99.90
2022-08-20T15:56:05.255Z,99.90
2022-08-20T15:58:40.585Z,99.90
2022-08-20T16:01:24.605Z,99.90
2022-08-20T16:04:15.525Z,99.90
2022-08-20T16:06:44.798Z,99.90
2022-08-20T16:09:30.998Z,99.90
2022-08-20T16:12:08.706Z,99.90
2022-08-20T16:14:41.908Z,99.90
2022-08-20T16:17:16.925Z,99.90
2022-08-20T16:20:08.321Z,99.90
2022-08-20T16:22:40.165Z,99.90
2022-08-20T16:25:09.678Z,99.90
2022-08-20T16:27:48.325Z,99.90
2022-08-20T16:30:22.076Z,99.90
2022-08-20T16:32:58.112Z,99.90
2022-08-20T16:35:32.287Z,99.90
2022-08-20T16:38:05.857Z,99.90
2022-08-20T16:40:39.278Z,99.90
2022-08-20T16:43:11.842Z,99.90
2022-08-20T16:45:50.865Z,99.90
2022-08-20T16:48:20.918Z,99.90
2022-08-20T16:50:59.837Z,99.90
2022-08-20T16:53:28.782Z,99.90
2022-08-20T16:55:57.807Z,99.90
2022-08-20T16:58:27.475Z,99.90
2022-08-20T17:01:09.712Z,99.90
2022-08-20T17:03:40.922Z,99.90
2022-08-20T17:06:18.384Z,99.90
2022-08-20T17:08:50.602Z,99.90
2022-08-20T17:11:26.180Z,99.90
2022-08-20T17:14:08.359Z,99.90
2022-08-20T17:16:39.453Z,1.00
2022-08-20T17:19:18.450Z,1.00
2022-08-20T17:21:50.392Z,1.00
2022-08-20T17:24:25.890Z,1.00
2022-08-20T17:26:59.588Z,1.00
2022-08-20T17:29:30.845Z,1.00
2022-08-20T17:32:02.590Z,1.00
2022-08-20T17:34:33.735Z,1.00
2022-08-20T17:37:06.409Z,1.00
2022-08-20T17:39:34.927Z,1.00
2022-08-20T17:42:08.101Z,1.00
2022-08-20T17:44:44.086Z,1.00
2022-08-20T17:47:16.323Z,1.00
2022-08-20T17:50:00.504Z,1.00
2022-08-20T17:52:35.989Z,1.00
2022-08-20T17:55:06.017Z,1.00
2022-08-20T17:57:38.830Z,1.00
2022-08-20T18:00:14.673Z,1.00
2022-08-20T18:02:43.357Z,1.00
2022-08-20T18:05:17.163Z,1.00
2022-08-20T18:07:58.179Z,1.00
2022-08-20T18:10:28.164Z,1.00
2022-08-20T18:13:02.376Z,1.00
2022-08-20T18:15:35.801Z,1.00
2022-08-20T18:18:16.745Z,1.00
2022-08-20T18:21:04.973Z,1.00
2022-08-20T18:23:37.757Z,1.00
2022-08-20T18:26:12.166Z,1.00
2022-08-20T18:28:44.646Z,1.00
2022-08-20T18:31:29.913Z,1.00
2022-08-20T18:33:58.236Z,1.00
2022-08-20T18:36:28.894Z,1.20
2022-08-20T18:39:01.299Z,99.90
2022-08-20T18:41:32.648Z,1.00
2022-08-20T18:44:10.257Z,1.00
2022-08-20T18:46:52.610Z,1.00
2022-08-20T18:49:29.685Z,1.00
2022-08-20T18:52:11.382Z,1.00
2022-08-20T18:54:42.055Z,2.60
2022-08-20T18:57:20.619Z,6.40
2022-08-20T18:59:55.292Z,14.40
2022-08-20T19:02:29.623Z,17.50
2022-08-20T19:05:04.742Z,20.00
2022-08-20T19:07:48.027Z,18.00
2022-08-20T19:10:40.254Z,17.00
2022-08-20T19:13:35.097Z,16.50
2022-08-20T19:16:06.942Z,18.30
2022-08-20T19:18:45.155Z,19.50
2022-08-20T19:21:16.228Z,16.20
2022-08-20T19:23:53.324Z,14.70
2022-08-20T19:26:25.802Z,14.20
2022-08-20T19:28:58.744Z,13.80
2022-08-20T19:31:29.366Z,13.80
2022-08-20T19:34:21.491Z,13.90
2022-08-20T19:36:55.975Z,12.70
2022-08-20T19:39:25.808Z,12.80
2022-08-20T19:41:59.672Z,14.80
2022-08-20T19:44:42.717Z,13.10
2022-08-20T19:47:20.148Z,15.50
2022-08-20T19:49:58.425Z,17.50
2022-08-20T19:52:37.530Z,20.30
2022-08-20T19:55:06.637Z,24.00
2022-08-20T19:57:34.672Z,30.10
2022-08-20T20:00:10.461Z,35.90
2022-08-20T20:02:38.937Z,37.90
2022-08-20T20:05:12.966Z,39.10
2022-08-20T20:07:43.340Z,40.20
2022-08-20T20:10:29.370Z,39.40
2022-08-20T20:13:06.595Z,40.10
2022-08-20T20:15:34.790Z,39.90
2022-08-20T20:18:02.920Z,39.00
2022-08-20T20:20:38.516Z,38.70
2022-08-20T20:23:27.676Z,38.60
2022-08-20T20:26:14.383Z,37.30
2022-08-20T20:28:47.132Z,35.30
2022-08-20T20:31:28.676Z,37.00
2022-08-20T20:34:01.106Z,37.00
2022-08-20T20:36:37.202Z,41.00
2022-08-20T20:39:11.238Z,43.80
2022-08-20T20:41:52.585Z,45.20
2022-08-20T20:44:22.290Z,48.70
2022-08-20T20:46:54.132Z,52.80
2022-08-20T20:49:25.300Z,53.70
2022-08-20T20:51:59.698Z,56.20
2022-08-20T20:54:31.086Z,56.40
2022-08-20T20:57:03.118Z,57.30
2022-08-20T20:59:33.793Z,57.70
2022-08-20T21:02:02.460Z,56.90
2022-08-20T21:04:30.657Z,60.20
2022-08-20T21:07:07.537Z,57.20
2022-08-20T21:09:37.276Z,59.90
2022-08-20T21:12:06.651Z,61.10
2022-08-20T21:14:34.784Z,63.10
2022-08-20T21:17:05.338Z,63.10
2022-08-20T21:19:33.604Z,64.80
2022-08-20T21:22:14.554Z,66.40
2022-08-20T21:24:42.586Z,66.80
2022-08-20T21:27:13.966Z,68.30
2022-08-20T21:29:42.059Z,69.40
2022-08-20T21:32:12.517Z,70.30
2022-08-20T21:34:43.408Z,72.90
2022-08-20T21:37:11.762Z,74.30
2022-08-20T21:39:42.149Z,75.60
2022-08-20T21:42:28.738Z,76.50
2022-08-20T21:44:57.556Z,75.90
2022-08-20T21:47:25.735Z,79.60
2022-08-20T21:49:54.185Z,80.70
2022-08-20T21:52:23.045Z,82.70
2022-08-20T21:54:52.473Z,83.30
2022-08-20T21:57:22.974Z,82.80
2022-08-20T21:59:51.153Z,83.10
2022-08-20T22:02:21.295Z,84.60
2022-08-20T22:04:54.032Z,84.20
2022-08-20T22:07:22.869Z,84.30
2022-08-20T22:09:53.809Z,84.60
2022-08-20T22:12:26.623Z,83.60
2022-08-20T22:14:55.538Z,81.70
2022-08-20T22:17:23.578Z,81.30
2022-08-20T22:19:51.749Z,81.40
2022-08-20T22:22:21.689Z,82.70
2022-08-20T22:24:49.707Z,84.80
2022-08-20T22:27:19.102Z,85.50
2022-08-20T22:29:47.141Z,87.10
2022-08-20T22:32:15.641Z,90.40
2022-08-20T22:34:45.486Z,90.80
2022-08-20T22:37:15.730Z,90.80
2022-08-20T22:39:43.866Z,91.40
2022-08-20T22:42:12.099Z,91.20
2022-08-20T22:44:41.494Z,91.50
2022-08-20T22:47:10.213Z,91.10
2022-08-20T22:49:41.553Z,91.40
2022-08-20T22:52:11.880Z,92.00
2022-08-20T22:54:42.029Z,92.00
2022-08-20T22:57:13.250Z,92.80
2022-08-20T22:59:46.464Z,92.60
2022-08-20T23:02:22.117Z,93.00
2022-08-20T23:04:50.194Z,93.40
2022-08-20T23:07:20.074Z,92.70
2022-08-20T23:09:48.142Z,93.50
2022-08-20T23:12:16.091Z,93.00
2022-08-20T23:14:45.480Z,93.30
2022-08-20T23:17:19.048Z,93.10
2022-08-20T23:19:49.131Z,93.10
2022-08-20T23:22:18.655Z,93.10
2022-08-20T23:24:47.501Z,92.90
2022-08-20T23:27:18.217Z,93.10
2022-08-20T23:29:48.252Z,93.10
2022-08-20T23:32:16.319Z,93.70
2022-08-20T23:34:44.396Z,94.70
2022-08-20T23:37:14.146Z,94.80
2022-08-20T23:39:46.195Z,95.30
2022-08-20T23:42:14.724Z,95.80
2022-08-20T23:44:43.187Z,95.50
2022-08-20T23:47:19.451Z,95.30
2022-08-20T23:49:48.091Z,95.30
2022-08-20T23:52:16.203Z,94.80
2022-08-20T23:54:44.559Z,94.90
2022-08-20T23:57:12.891Z,94.70
2022-08-20T23:59:41.897Z,94.10
